sensor_id;sensor_type;location;lat;lon;timestamp;temperature;humidity
70460;DHT22;57920;54.796;9.430;2022-09-12T00:01:11;19.70;60.90
70460;DHT22;57920;54.796;9.430;2022-09-12T00:03:38;19.70;60.90
70460;DHT22;57920;54.796;9.430;2022-09-12T00:06:12;19.70;60.90
70460;DHT22;57920;54.796;9.430;2022-09-12T00:08:39;19.70;60.90
70460;DHT22;57920;54.796;9.430;2022-09-12T00:11:09;19.70;60.80
70460;DHT22;57920;54.796;9.430;2022-09-12T00:13:36;19.70;60.80
70460;DHT22;57920;54.796;9.430;2022-09-12T00:16:03;19.70;60.80
70460;DHT22;57920;54.796;9.430;2022-09-12T00:18:30;19.70;60.80
70460;DHT22;57920;54.796;9.430;2022-09-12T00:20:56;19.70;60.80
70460;DHT22;57920;54.796;9.430;2022-09-12T00:23:22;19.70;60.80
70460;DHT22;57920;54.796;9.430;2022-09-12T00:25:48;19.70;60.80
70460;DHT22;57920;54.796;9.430;2022-09-12T00:28:16;19.70;60.70
70460;DHT22;57920;54.796;9.430;2022-09-12T00:30:50;19.70;60.70
70460;DHT22;57920;54.796;9.430;2022-09-12T00:33:16;19.70;60.70
70460;DHT22;57920;54.796;9.430;2022-09-12T00:35:50;19.70;60.70
70460;DHT22;57920;54.796;9.430;2022-09-12T00:38:19;19.70;60.70
70460;DHT22;57920;54.796;9.430;2022-09-12T00:40:47;19.70;60.70
70460;DHT22;57920;54.796;9.430;2022-09-12T00:43:36;19.70;60.70
70460;DHT22;57920;54.796;9.430;2022-09-12T00:48:45;19.70;60.60
70460;DHT22;57920;54.796;9.430;2022-09-12T00:51:12;19.70;60.60
70460;DHT22;57920;54.796;9.430;2022-09-12T00:53:40;19.70;60.60
70460;DHT22;57920;54.796;9.430;2022-09-12T00:56:08;19.70;60.50
70460;DHT22;57920;54.796;9.430;2022-09-12T00:58:42;19.70;60.50
70460;DHT22;57920;54.796;9.430;2022-09-12T01:01:10;19.70;60.50
70460;DHT22;57920;54.796;9.430;2022-09-12T01:03:36;19.70;60.50
70460;DHT22;57920;54.796;9.430;2022-09-12T01:06:11;19.70;60.50
70460;DHT22;57920;54.796;9.430;2022-09-12T01:08:38;19.70;60.50
70460;DHT22;57920;54.796;9.430;2022-09-12T01:11:06;19.70;60.50
70460;DHT22;57920;54.796;9.430;2022-09-12T01:13:34;19.70;60.50
70460;DHT22;57920;54.796;9.430;2022-09-12T01:16:02;19.70;60.40
70460;DHT22;57920;54.796;9.430;2022-09-12T01:33:01;19.70;60.40
70460;DHT22;57920;54.796;9.430;2022-09-12T01:38:37;19.70;60.40
70460;DHT22;57920;54.796;9.430;2022-09-12T01:44:16;19.60;60.40
70460;DHT22;57920;54.796;9.430;2022-09-12T01:47:05;19.60;60.40
70460;DHT22;57920;54.796;9.430;2022-09-12T01:49:40;19.60;60.40
70460;DHT22;57920;54.796;9.430;2022-09-12T01:52:27;19.60;60.40
70460;DHT22;57920;54.796;9.430;2022-09-12T01:55:10;19.60;60.40
70460;DHT22;57920;54.796;9.430;2022-09-12T01:57:44;19.60;60.30
70460;DHT22;57920;54.796;9.430;2022-09-12T02:00:11;19.50;60.40
70460;DHT22;57920;54.796;9.430;2022-09-12T02:02:55;19.50;60.40
70460;DHT22;57920;54.796;9.430;2022-09-12T02:08:02;19.50;60.30
70460;DHT22;57920;54.796;9.430;2022-09-12T02:10:33;19.50;60.30
70460;DHT22;57920;54.796;9.430;2022-09-12T02:13:10;19.50;60.30
70460;DHT22;57920;54.796;9.430;2022-09-12T02:15:46;19.50;60.30
70460;DHT22;57920;54.796;9.430;2022-09-12T02:18:15;19.50;60.30
70460;DHT22;57920;54.796;9.430;2022-09-12T02:20:43;19.50;60.20
70460;DHT22;57920;54.796;9.430;2022-09-12T02:23:13;19.50;60.20
70460;DHT22;57920;54.796;9.430;2022-09-12T02:25:43;19.50;60.20
70460;DHT22;57920;54.796;9.430;2022-09-12T02:28:17;19.50;60.30
70460;DHT22;57920;54.796;9.430;2022-09-12T02:37:05;19.50;60.10
70460;DHT22;57920;54.796;9.430;2022-09-12T02:39:32;19.50;60.10
70460;DHT22;57920;54.796;9.430;2022-09-12T02:41:59;19.50;60.10
70460;DHT22;57920;54.796;9.430;2022-09-12T02:44:27;19.50;60.10
70460;DHT22;57920;54.796;9.430;2022-09-12T02:46:57;19.50;60.10
70460;DHT22;57920;54.796;9.430;2022-09-12T02:49:24;19.50;60.10
70460;DHT22;57920;54.796;9.430;2022-09-12T02:51:50;19.50;60.00
70460;DHT22;57920;54.796;9.430;2022-09-12T02:54:16;19.50;60.10
70460;DHT22;57920;54.796;9.430;2022-09-12T02:56:44;19.50;60.00
70460;DHT22;57920;54.796;9.430;2022-09-12T02:59:13;19.50;60.00
70460;DHT22;57920;54.796;9.430;2022-09-12T03:04:54;19.50;60.00
70460;DHT22;57920;54.796;9.430;2022-09-12T03:07:49;19.50;60.00
70460;DHT22;57920;54.796;9.430;2022-09-12T03:16:41;19.50;59.90
70460;DHT22;57920;54.796;9.430;2022-09-12T03:22:16;19.50;59.80
70460;DHT22;57920;54.796;9.430;2022-09-12T03:25:11;19.50;59.90
70460;DHT22;57920;54.796;9.430;2022-09-12T03:28:07;19.50;59.90
70460;DHT22;57920;54.796;9.430;2022-09-12T03:30:44;19.50;59.90
70460;DHT22;57920;54.796;9.430;2022-09-12T03:33:15;19.50;59.80
70460;DHT22;57920;54.796;9.430;2022-09-12T03:35:41;19.50;59.80
70460;DHT22;57920;54.796;9.430;2022-09-12T03:38:08;19.50;59.80
70460;DHT22;57920;54.796;9.430;2022-09-12T03:40:35;19.50;59.80
70460;DHT22;57920;54.796;9.430;2022-09-12T03:43:01;19.50;59.80
70460;DHT22;57920;54.796;9.430;2022-09-12T03:45:27;19.50;59.70
70460;DHT22;57920;54.796;9.430;2022-09-12T03:47:52;19.50;59.70
70460;DHT22;57920;54.796;9.430;2022-09-12T03:50:18;19.50;59.70
70460;DHT22;57920;54.796;9.430;2022-09-12T03:52:43;19.50;59.70
70460;DHT22;57920;54.796;9.430;2022-09-12T03:55:09;19.50;59.70
70460;DHT22;57920;54.796;9.430;2022-09-12T03:57:35;19.50;59.70
70460;DHT22;57920;54.796;9.430;2022-09-12T04:00:01;19.50;59.70
70460;DHT22;57920;54.796;9.430;2022-09-12T04:02:27;19.50;59.70
70460;DHT22;57920;54.796;9.430;2022-09-12T04:04:53;19.50;59.70
70460;DHT22;57920;54.796;9.430;2022-09-12T04:07:19;19.50;59.60
70460;DHT22;57920;54.796;9.430;2022-09-12T04:09:44;19.50;59.60
70460;DHT22;57920;54.796;9.430;2022-09-12T04:12:10;19.50;59.60
70460;DHT22;57920;54.796;9.430;2022-09-12T04:14:37;19.50;59.60
70460;DHT22;57920;54.796;9.430;2022-09-12T04:17:03;19.50;59.60
70460;DHT22;57920;54.796;9.430;2022-09-12T04:19:28;19.50;59.60
70460;DHT22;57920;54.796;9.430;2022-09-12T04:21:54;19.50;59.60
70460;DHT22;57920;54.796;9.430;2022-09-12T04:24:19;19.50;59.60
70460;DHT22;57920;54.796;9.430;2022-09-12T04:26:45;19.50;59.60
70460;DHT22;57920;54.796;9.430;2022-09-12T04:29:11;19.50;59.60
70460;DHT22;57920;54.796;9.430;2022-09-12T04:31:37;19.50;59.60
70460;DHT22;57920;54.796;9.430;2022-09-12T04:34:03;19.50;59.60
70460;DHT22;57920;54.796;9.430;2022-09-12T04:36:51;19.50;59.50
70460;DHT22;57920;54.796;9.430;2022-09-12T04:39:17;19.50;59.60
70460;DHT22;57920;54.796;9.430;2022-09-12T04:41:42;19.50;59.50
70460;DHT22;57920;54.796;9.430;2022-09-12T04:44:13;19.50;59.50
70460;DHT22;57920;54.796;9.430;2022-09-12T04:46:45;19.50;59.50
70460;DHT22;57920;54.796;9.430;2022-09-12T04:49:12;19.50;59.60
70460;DHT22;57920;54.796;9.430;2022-09-12T04:51:39;19.50;59.60
70460;DHT22;57920;54.796;9.430;2022-09-12T04:54:16;19.50;59.50
70460;DHT22;57920;54.796;9.430;2022-09-12T04:56:44;19.50;59.50
70460;DHT22;57920;54.796;9.430;2022-09-12T04:59:11;19.50;59.50
70460;DHT22;57920;54.796;9.430;2022-09-12T05:01:37;19.50;59.50
70460;DHT22;57920;54.796;9.430;2022-09-12T05:04:03;19.50;59.60
70460;DHT22;57920;54.796;9.430;2022-09-12T05:06:31;19.50;59.50
70460;DHT22;57920;54.796;9.430;2022-09-12T05:08:58;19.50;59.50
70460;DHT22;57920;54.796;9.430;2022-09-12T05:11:29;19.50;59.50
70460;DHT22;57920;54.796;9.430;2022-09-12T05:13:56;19.40;59.50
70460;DHT22;57920;54.796;9.430;2022-09-12T05:16:25;19.50;59.50
70460;DHT22;57920;54.796;9.430;2022-09-12T05:18:51;19.40;59.50
70460;DHT22;57920;54.796;9.430;2022-09-12T05:21:18;19.40;59.50
70460;DHT22;57920;54.796;9.430;2022-09-12T05:23:45;19.50;59.50
70460;DHT22;57920;54.796;9.430;2022-09-12T05:26:14;19.50;59.50
70460;DHT22;57920;54.796;9.430;2022-09-12T05:28:40;19.50;59.50
70460;DHT22;57920;54.796;9.430;2022-09-12T05:31:10;19.50;59.50
70460;DHT22;57920;54.796;9.430;2022-09-12T05:33:37;19.50;59.50
70460;DHT22;57920;54.796;9.430;2022-09-12T05:36:05;19.50;59.50
70460;DHT22;57920;54.796;9.430;2022-09-12T05:38:33;19.50;59.60
70460;DHT22;57920;54.796;9.430;2022-09-12T05:41:08;19.50;59.60
70460;DHT22;57920;54.796;9.430;2022-09-12T05:43:35;19.50;59.60
70460;DHT22;57920;54.796;9.430;2022-09-12T05:46:07;19.50;59.60
70460;DHT22;57920;54.796;9.430;2022-09-12T05:48:38;19.50;59.60
70460;DHT22;57920;54.796;9.430;2022-09-12T05:51:16;19.50;59.80
70460;DHT22;57920;54.796;9.430;2022-09-12T05:53:44;19.40;59.90
70460;DHT22;57920;54.796;9.430;2022-09-12T05:56:18;19.40;59.80
70460;DHT22;57920;54.796;9.430;2022-09-12T05:58:46;19.30;59.80
70460;DHT22;57920;54.796;9.430;2022-09-12T06:01:14;19.30;59.60
70460;DHT22;57920;54.796;9.430;2022-09-12T06:03:43;19.30;59.40
70460;DHT22;57920;54.796;9.430;2022-09-12T06:06:12;19.30;59.40
70460;DHT22;57920;54.796;9.430;2022-09-12T06:08:39;19.20;59.60
70460;DHT22;57920;54.796;9.430;2022-09-12T06:11:05;19.20;59.60
70460;DHT22;57920;54.796;9.430;2022-09-12T06:13:33;19.20;59.50
70460;DHT22;57920;54.796;9.430;2022-09-12T06:16:10;19.20;59.60
70460;DHT22;57920;54.796;9.430;2022-09-12T06:18:37;19.30;59.70
70460;DHT22;57920;54.796;9.430;2022-09-12T06:21:12;19.30;60.20
70460;DHT22;57920;54.796;9.430;2022-09-12T06:23:38;19.40;59.80
70460;DHT22;57920;54.796;9.430;2022-09-12T06:26:07;19.50;59.90
70460;DHT22;57920;54.796;9.430;2022-09-12T06:28:35;19.50;59.60
70460;DHT22;57920;54.796;9.430;2022-09-12T06:31:05;19.50;59.40
70460;DHT22;57920;54.796;9.430;2022-09-12T06:33:33;19.50;59.70
70460;DHT22;57920;54.796;9.430;2022-09-12T06:38:33;19.70;59.80
70460;DHT22;57920;54.796;9.430;2022-09-12T06:40:58;19.70;59.70
70460;DHT22;57920;54.796;9.430;2022-09-12T06:43:25;19.70;60.00
70460;DHT22;57920;54.796;9.430;2022-09-12T06:45:51;19.70;59.90
70460;DHT22;57920;54.796;9.430;2022-09-12T06:48:16;19.80;59.90
70460;DHT22;57920;54.796;9.430;2022-09-12T06:50:42;19.80;60.00
70460;DHT22;57920;54.796;9.430;2022-09-12T06:53:08;19.90;60.20
70460;DHT22;57920;54.796;9.430;2022-09-12T06:55:34;19.90;60.10
70460;DHT22;57920;54.796;9.430;2022-09-12T06:57:59;19.90;60.10
70460;DHT22;57920;54.796;9.430;2022-09-12T07:00:25;19.90;59.60
70460;DHT22;57920;54.796;9.430;2022-09-12T07:02:54;19.90;59.70
70460;DHT22;57920;54.796;9.430;2022-09-12T07:05:21;19.90;59.50
70460;DHT22;57920;54.796;9.430;2022-09-12T07:07:47;19.90;59.50
70460;DHT22;57920;54.796;9.430;2022-09-12T07:10:13;19.90;59.80
70460;DHT22;57920;54.796;9.430;2022-09-12T07:12:38;19.90;59.40
70460;DHT22;57920;54.796;9.430;2022-09-12T07:15:04;20.00;59.30
70460;DHT22;57920;54.796;9.430;2022-09-12T07:17:30;20.00;59.20
70460;DHT22;57920;54.796;9.430;2022-09-12T07:19:56;20.00;59.20
70460;DHT22;57920;54.796;9.430;2022-09-12T07:22:21;20.00;59.30
70460;DHT22;57920;54.796;9.430;2022-09-12T07:24:47;20.00;59.00
70460;DHT22;57920;54.796;9.430;2022-09-12T07:27:12;20.10;59.10
70460;DHT22;57920;54.796;9.430;2022-09-12T07:29:38;20.10;58.90
70460;DHT22;57920;54.796;9.430;2022-09-12T07:32:04;20.10;59.00
70460;DHT22;57920;54.796;9.430;2022-09-12T07:34:31;20.20;59.10
70460;DHT22;57920;54.796;9.430;2022-09-12T07:36:56;20.20;59.40
70460;DHT22;57920;54.796;9.430;2022-09-12T07:39:23;20.30;58.90
70460;DHT22;57920;54.796;9.430;2022-09-12T07:41:48;20.30;58.90
70460;DHT22;57920;54.796;9.430;2022-09-12T07:44:14;20.30;58.90
70460;DHT22;57920;54.796;9.430;2022-09-12T07:46:39;20.30;59.20
70460;DHT22;57920;54.796;9.430;2022-09-12T07:49:05;20.30;59.20
70460;DHT22;57920;54.796;9.430;2022-09-12T07:51:30;20.30;59.30
70460;DHT22;57920;54.796;9.430;2022-09-12T07:53:56;20.30;59.20
70460;DHT22;57920;54.796;9.430;2022-09-12T07:56:23;20.30;58.90
70460;DHT22;57920;54.796;9.430;2022-09-12T07:58:49;20.30;59.40
70460;DHT22;57920;54.796;9.430;2022-09-12T08:01:20;20.30;59.40
70460;DHT22;57920;54.796;9.430;2022-09-12T08:03:48;20.30;59.00
70460;DHT22;57920;54.796;9.430;2022-09-12T08:06:19;20.40;59.10
70460;DHT22;57920;54.796;9.430;2022-09-12T08:08:46;20.40;59.10
70460;DHT22;57920;54.796;9.430;2022-09-12T08:11:14;20.40;59.00
70460;DHT22;57920;54.796;9.430;2022-09-12T08:13:41;20.40;59.20
70460;DHT22;57920;54.796;9.430;2022-09-12T08:16:13;20.50;59.10
70460;DHT22;57920;54.796;9.430;2022-09-12T08:18:39;20.50;59.40
70460;DHT22;57920;54.796;9.430;2022-09-12T08:21:09;20.50;59.40
70460;DHT22;57920;54.796;9.430;2022-09-12T08:23:36;20.50;59.30
70460;DHT22;57920;54.796;9.430;2022-09-12T08:26:03;20.50;60.10
70460;DHT22;57920;54.796;9.430;2022-09-12T08:28:31;20.50;59.90
70460;DHT22;57920;54.796;9.430;2022-09-12T08:31:00;20.50;60.20
70460;DHT22;57920;54.796;9.430;2022-09-12T08:33:27;20.40;60.30
70460;DHT22;57920;54.796;9.430;2022-09-12T08:36:10;20.40;60.00
70460;DHT22;57920;54.796;9.430;2022-09-12T08:38:37;20.40;60.00
70460;DHT22;57920;54.796;9.430;2022-09-12T08:49:47;20.30;59.50
70460;DHT22;57920;54.796;9.430;2022-09-12T08:52:21;20.30;59.40
70460;DHT22;57920;54.796;9.430;2022-09-12T08:54:48;20.30;59.30
70460;DHT22;57920;54.796;9.430;2022-09-12T08:57:14;20.30;59.40
70460;DHT22;57920;54.796;9.430;2022-09-12T08:59:42;20.20;59.40
70460;DHT22;57920;54.796;9.430;2022-09-12T09:08:01;20.20;59.40
70460;DHT22;57920;54.796;9.430;2022-09-12T09:16:36;20.30;59.50
70460;DHT22;57920;54.796;9.430;2022-09-12T09:19:11;20.30;59.60
70460;DHT22;57920;54.796;9.430;2022-09-12T09:24:12;20.30;59.70
70460;DHT22;57920;54.796;9.430;2022-09-12T09:26:44;20.30;59.70
70460;DHT22;57920;54.796;9.430;2022-09-12T09:29:17;20.30;59.70
70460;DHT22;57920;54.796;9.430;2022-09-12T09:31:47;20.30;59.70
70460;DHT22;57920;54.796;9.430;2022-09-12T09:34:21;20.30;59.60
70460;DHT22;57920;54.796;9.430;2022-09-12T09:42:47;20.30;59.40
70460;DHT22;57920;54.796;9.430;2022-09-12T09:45:19;20.30;59.30
70460;DHT22;57920;54.796;9.430;2022-09-12T09:47:52;20.30;59.40
70460;DHT22;57920;54.796;9.430;2022-09-12T09:50:19;20.20;59.20
70460;DHT22;57920;54.796;9.430;2022-09-12T09:52:45;20.20;59.30
70460;DHT22;57920;54.796;9.430;2022-09-12T09:55:16;20.20;59.20
70460;DHT22;57920;54.796;9.430;2022-09-12T09:57:44;20.20;59.20
70460;DHT22;57920;54.796;9.430;2022-09-12T10:00:30;20.20;59.30
70460;DHT22;57920;54.796;9.430;2022-09-12T10:03:24;20.30;59.10
70460;DHT22;57920;54.796;9.430;2022-09-12T10:05:59;20.30;59.30
70460;DHT22;57920;54.796;9.430;2022-09-12T10:08:31;20.30;59.40
70460;DHT22;57920;54.796;9.430;2022-09-12T10:11:03;20.30;59.20
70460;DHT22;57920;54.796;9.430;2022-09-12T10:13:33;20.30;59.30
70460;DHT22;57920;54.796;9.430;2022-09-12T10:16:02;20.30;59.40
70460;DHT22;57920;54.796;9.430;2022-09-12T10:18:40;20.40;59.00
70460;DHT22;57920;54.796;9.430;2022-09-12T10:21:38;20.30;59.00
70460;DHT22;57920;54.796;9.430;2022-09-12T10:26:48;20.30;58.80
70460;DHT22;57920;54.796;9.430;2022-09-12T10:29:28;20.30;58.90
70460;DHT22;57920;54.796;9.430;2022-09-12T10:32:02;20.30;58.70
70460;DHT22;57920;54.796;9.430;2022-09-12T10:34:30;20.30;58.70
70460;DHT22;57920;54.796;9.430;2022-09-12T10:37:02;20.30;58.60
70460;DHT22;57920;54.796;9.430;2022-09-12T10:39:29;20.30;58.80
70460;DHT22;57920;54.796;9.430;2022-09-12T10:41:55;20.40;59.00
70460;DHT22;57920;54.796;9.430;2022-09-12T10:44:27;20.50;59.10
70460;DHT22;57920;54.796;9.430;2022-09-12T10:46:54;20.40;58.90
70460;DHT22;57920;54.796;9.430;2022-09-12T10:49:30;20.40;58.70
70460;DHT22;57920;54.796;9.430;2022-09-12T10:52:23;20.40;58.90
70460;DHT22;57920;54.796;9.430;2022-09-12T10:54:52;20.40;59.00
70460;DHT22;57920;54.796;9.430;2022-09-12T10:57:25;20.30;58.60
70460;DHT22;57920;54.796;9.430;2022-09-12T11:00:12;20.40;58.80
70460;DHT22;57920;54.796;9.430;2022-09-12T11:05:54;20.40;58.90
70460;DHT22;57920;54.796;9.430;2022-09-12T11:16:43;20.40;58.80
70460;DHT22;57920;54.796;9.430;2022-09-12T11:19:57;20.40;58.80
70460;DHT22;57920;54.796;9.430;2022-09-12T11:25:17;20.40;58.60
70460;DHT22;57920;54.796;9.430;2022-09-12T11:28:27;20.40;58.60
70460;DHT22;57920;54.796;9.430;2022-09-12T11:33:45;20.40;58.60
70460;DHT22;57920;54.796;9.430;2022-09-12T11:41:36;20.50;58.70
70460;DHT22;57920;54.796;9.430;2022-09-12T11:44:19;20.50;58.70
70460;DHT22;57920;54.796;9.430;2022-09-12T11:46:46;20.50;58.70
70460;DHT22;57920;54.796;9.430;2022-09-12T11:49:23;20.50;58.60
70460;DHT22;57920;54.796;9.430;2022-09-12T11:52:10;20.50;58.60
70460;DHT22;57920;54.796;9.430;2022-09-12T12:00:03;20.50;58.80
70460;DHT22;57920;54.796;9.430;2022-09-12T12:02:36;20.50;58.90
70460;DHT22;57920;54.796;9.430;2022-09-12T12:05:21;20.50;58.80
70460;DHT22;57920;54.796;9.430;2022-09-12T12:07:57;20.50;58.80
70460;DHT22;57920;54.796;9.430;2022-09-12T12:10:34;20.50;58.80
70460;DHT22;57920;54.796;9.430;2022-09-12T12:13:07;20.50;58.70
70460;DHT22;57920;54.796;9.430;2022-09-12T12:15:35;20.50;58.70
70460;DHT22;57920;54.796;9.430;2022-09-12T12:18:05;20.60;58.80
70460;DHT22;57920;54.796;9.430;2022-09-12T12:20:31;20.60;58.80
70460;DHT22;57920;54.796;9.430;2022-09-12T12:22:58;20.60;58.70
70460;DHT22;57920;54.796;9.430;2022-09-12T12:25:38;20.60;58.80
70460;DHT22;57920;54.796;9.430;2022-09-12T12:28:04;20.60;58.70
70460;DHT22;57920;54.796;9.430;2022-09-12T12:38:31;20.60;58.70
70460;DHT22;57920;54.796;9.430;2022-09-12T12:43:51;20.60;58.70
70460;DHT22;57920;54.796;9.430;2022-09-12T12:46:18;20.60;58.70
70460;DHT22;57920;54.796;9.430;2022-09-12T12:51:46;20.70;58.60
70460;DHT22;57920;54.796;9.430;2022-09-12T12:57:16;20.70;58.50
70460;DHT22;57920;54.796;9.430;2022-09-12T13:02:27;20.80;58.70
70460;DHT22;57920;54.796;9.430;2022-09-12T13:04:55;20.80;58.80
70460;DHT22;57920;54.796;9.430;2022-09-12T13:07:35;20.80;59.10
70460;DHT22;57920;54.796;9.430;2022-09-12T13:10:03;20.80;59.10
70460;DHT22;57920;54.796;9.430;2022-09-12T13:12:45;20.90;58.90
70460;DHT22;57920;54.796;9.430;2022-09-12T13:18:11;20.90;59.00
70460;DHT22;57920;54.796;9.430;2022-09-12T13:21:34;20.90;58.90
70460;DHT22;57920;54.796;9.430;2022-09-12T13:23:35;20.90;58.90
70460;DHT22;57920;54.796;9.430;2022-09-12T13:26:02;20.90;58.90
70460;DHT22;57920;54.796;9.430;2022-09-12T13:28:29;20.90;58.90
70460;DHT22;57920;54.796;9.430;2022-09-12T13:31:05;20.90;58.90
70460;DHT22;57920;54.796;9.430;2022-09-12T13:33:46;20.90;58.80
70460;DHT22;57920;54.796;9.430;2022-09-12T13:36:53;20.90;58.80
70460;DHT22;57920;54.796;9.430;2022-09-12T13:44:52;20.90;58.80
70460;DHT22;57920;54.796;9.430;2022-09-12T13:47:27;20.90;58.80
70460;DHT22;57920;54.796;9.430;2022-09-12T13:49:55;20.90;58.90
70460;DHT22;57920;54.796;9.430;2022-09-12T13:52:30;20.90;59.00
70460;DHT22;57920;54.796;9.430;2022-09-12T13:54:57;20.90;59.00
70460;DHT22;57920;54.796;9.430;2022-09-12T13:57:36;20.80;59.10
70460;DHT22;57920;54.796;9.430;2022-09-12T14:00:11;20.80;59.10
70460;DHT22;57920;54.796;9.430;2022-09-12T14:02:39;20.80;59.20
70460;DHT22;57920;54.796;9.430;2022-09-12T14:05:20;20.80;59.30
70460;DHT22;57920;54.796;9.430;2022-09-12T14:10:45;20.70;59.30
70460;DHT22;57920;54.796;9.430;2022-09-12T14:13:24;20.70;59.40
70460;DHT22;57920;54.796;9.430;2022-09-12T14:15:53;20.70;59.40
70460;DHT22;57920;54.796;9.430;2022-09-12T14:18:30;20.70;59.50
70460;DHT22;57920;54.796;9.430;2022-09-12T14:21:08;20.70;59.50
70460;DHT22;57920;54.796;9.430;2022-09-12T14:23:40;20.60;59.60
70460;DHT22;57920;54.796;9.430;2022-09-12T14:26:10;20.60;59.60
70460;DHT22;57920;54.796;9.430;2022-09-12T14:28:43;20.60;59.60
70460;DHT22;57920;54.796;9.430;2022-09-12T14:33:53;20.60;59.70
70460;DHT22;57920;54.796;9.430;2022-09-12T14:39:36;20.50;59.80
70460;DHT22;57920;54.796;9.430;2022-09-12T14:42:25;20.50;59.80
70460;DHT22;57920;54.796;9.430;2022-09-12T14:45:00;20.50;59.90
70460;DHT22;57920;54.796;9.430;2022-09-12T14:47:33;20.50;59.90
70460;DHT22;57920;54.796;9.430;2022-09-12T14:50:00;20.50;59.90
70460;DHT22;57920;54.796;9.430;2022-09-12T14:52:31;20.50;60.00
70460;DHT22;57920;54.796;9.430;2022-09-12T14:55:01;20.50;60.00
70460;DHT22;57920;54.796;9.430;2022-09-12T14:57:37;20.50;60.00
70460;DHT22;57920;54.796;9.430;2022-09-12T15:02:40;20.50;60.10
70460;DHT22;57920;54.796;9.430;2022-09-12T15:08:28;20.40;60.10
70460;DHT22;57920;54.796;9.430;2022-09-12T15:10:54;20.40;60.20
70460;DHT22;57920;54.796;9.430;2022-09-12T15:13:22;20.40;60.20
70460;DHT22;57920;54.796;9.430;2022-09-12T15:15:54;20.30;60.20
70460;DHT22;57920;54.796;9.430;2022-09-12T15:18:22;20.30;60.20
70460;DHT22;57920;54.796;9.430;2022-09-12T15:20:51;20.40;60.30
70460;DHT22;57920;54.796;9.430;2022-09-12T15:23:23;20.30;60.20
70460;DHT22;57920;54.796;9.430;2022-09-12T15:25:51;20.30;60.30
70460;DHT22;57920;54.796;9.430;2022-09-12T15:28:22;20.30;60.30
70460;DHT22;57920;54.796;9.430;2022-09-12T15:30:49;20.30;60.30
70460;DHT22;57920;54.796;9.430;2022-09-12T15:33:17;20.30;60.30
70460;DHT22;57920;54.796;9.430;2022-09-12T15:39:05;20.30;60.30
70460;DHT22;57920;54.796;9.430;2022-09-12T15:41:32;20.30;60.30
70460;DHT22;57920;54.796;9.430;2022-09-12T15:44:00;20.30;60.30
70460;DHT22;57920;54.796;9.430;2022-09-12T15:46:25;20.30;60.30
70460;DHT22;57920;54.796;9.430;2022-09-12T15:48:51;20.30;60.40
70460;DHT22;57920;54.796;9.430;2022-09-12T15:51:18;20.30;60.30
70460;DHT22;57920;54.796;9.430;2022-09-12T15:53:45;20.30;60.30
70460;DHT22;57920;54.796;9.430;2022-09-12T15:56:12;20.30;60.30
70460;DHT22;57920;54.796;9.430;2022-09-12T15:58:38;20.30;60.30
70460;DHT22;57920;54.796;9.430;2022-09-12T16:01:03;20.30;60.30
70460;DHT22;57920;54.796;9.430;2022-09-12T16:03:29;20.30;60.30
70460;DHT22;57920;54.796;9.430;2022-09-12T16:09:17;20.30;60.30
70460;DHT22;57920;54.796;9.430;2022-09-12T16:11:43;20.30;60.30
70460;DHT22;57920;54.796;9.430;2022-09-12T16:14:12;20.30;60.30
70460;DHT22;57920;54.796;9.430;2022-09-12T16:16:38;20.30;60.30
70460;DHT22;57920;54.796;9.430;2022-09-12T16:19:04;20.30;60.30
70460;DHT22;57920;54.796;9.430;2022-09-12T16:21:29;20.30;60.30
70460;DHT22;57920;54.796;9.430;2022-09-12T16:23:56;20.30;60.30
70460;DHT22;57920;54.796;9.430;2022-09-12T16:26:21;20.30;60.30
70460;DHT22;57920;54.796;9.430;2022-09-12T16:28:56;20.30;60.30
70460;DHT22;57920;54.796;9.430;2022-09-12T16:31:22;20.30;60.30
70460;DHT22;57920;54.796;9.430;2022-09-12T16:33:48;20.30;60.20
70460;DHT22;57920;54.796;9.430;2022-09-12T16:36:16;20.30;60.20
70460;DHT22;57920;54.796;9.430;2022-09-12T16:38:50;20.30;60.30
70460;DHT22;57920;54.796;9.430;2022-09-12T16:41:18;20.30;60.30
70460;DHT22;57920;54.796;9.430;2022-09-12T16:43:44;20.30;60.30
70460;DHT22;57920;54.796;9.430;2022-09-12T16:46:15;20.30;60.20
70460;DHT22;57920;54.796;9.430;2022-09-12T16:48:42;20.30;60.20
70460;DHT22;57920;54.796;9.430;2022-09-12T16:51:09;20.30;60.30
70460;DHT22;57920;54.796;9.430;2022-09-12T16:53:36;20.30;60.20
70460;DHT22;57920;54.796;9.430;2022-09-12T16:56:03;20.30;60.20
70460;DHT22;57920;54.796;9.430;2022-09-12T16:58:36;20.30;60.20
70460;DHT22;57920;54.796;9.430;2022-09-12T17:01:04;20.30;60.20
70460;DHT22;57920;54.796;9.430;2022-09-12T17:03:30;20.30;60.30
70460;DHT22;57920;54.796;9.430;2022-09-12T17:06:01;20.30;60.30
70460;DHT22;57920;54.796;9.430;2022-09-12T17:08:27;20.30;60.30
70460;DHT22;57920;54.796;9.430;2022-09-12T17:11:01;20.30;60.30
70460;DHT22;57920;54.796;9.430;2022-09-12T17:13:27;20.30;60.40
70460;DHT22;57920;54.796;9.430;2022-09-12T17:15:53;20.30;60.30
70460;DHT22;57920;54.796;9.430;2022-09-12T17:18:18;20.30;60.40
70460;DHT22;57920;54.796;9.430;2022-09-12T17:20:44;20.30;60.40
70460;DHT22;57920;54.796;9.430;2022-09-12T17:23:10;20.30;60.40
70460;DHT22;57920;54.796;9.430;2022-09-12T17:25:35;20.30;60.40
70460;DHT22;57920;54.796;9.430;2022-09-12T17:28:01;20.30;60.40
70460;DHT22;57920;54.796;9.430;2022-09-12T17:30:29;20.30;60.40
70460;DHT22;57920;54.796;9.430;2022-09-12T17:32:55;20.30;60.50
70460;DHT22;57920;54.796;9.430;2022-09-12T17:35:20;20.30;60.50
70460;DHT22;57920;54.796;9.430;2022-09-12T17:37:46;20.30;60.50
70460;DHT22;57920;54.796;9.430;2022-09-12T17:40:11;20.30;60.50
70460;DHT22;57920;54.796;9.430;2022-09-12T17:42:38;20.30;60.50
70460;DHT22;57920;54.796;9.430;2022-09-12T17:45:05;20.30;60.50
70460;DHT22;57920;54.796;9.430;2022-09-12T17:47:31;20.30;60.50
70460;DHT22;57920;54.796;9.430;2022-09-12T17:49:57;20.30;60.50
70460;DHT22;57920;54.796;9.430;2022-09-12T17:52:24;20.30;60.50
70460;DHT22;57920;54.796;9.430;2022-09-12T17:54:49;20.30;60.50
70460;DHT22;57920;54.796;9.430;2022-09-12T17:57:15;20.30;60.60
70460;DHT22;57920;54.796;9.430;2022-09-12T17:59:41;20.30;60.60
70460;DHT22;57920;54.796;9.430;2022-09-12T18:02:10;20.20;60.70
70460;DHT22;57920;54.796;9.430;2022-09-12T18:04:41;20.30;60.60
70460;DHT22;57920;54.796;9.430;2022-09-12T18:07:10;20.20;60.70
70460;DHT22;57920;54.796;9.430;2022-09-12T18:09:37;20.20;60.70
70460;DHT22;57920;54.796;9.430;2022-09-12T18:12:03;20.20;60.70
70460;DHT22;57920;54.796;9.430;2022-09-12T18:14:28;20.20;60.70
70460;DHT22;57920;54.796;9.430;2022-09-12T18:16:54;20.20;60.70
70460;DHT22;57920;54.796;9.430;2022-09-12T18:19:22;20.20;60.70
70460;DHT22;57920;54.796;9.430;2022-09-12T18:21:47;20.20;60.70
70460;DHT22;57920;54.796;9.430;2022-09-12T18:24:13;20.20;60.80